createdAt,value
2023-04-23T00:01:20.784Z,10.90
2023-04-23T00:03:50.494Z,10.80
2023-04-23T00:06:18.885Z,10.90
2023-04-23T00:08:47.232Z,10.90
2023-04-23T00:11:14.441Z,10.90
2023-04-23T00:13:41.960Z,10.90
2023-04-23T00:16:11.024Z,10.90
2023-04-23T00:18:38.425Z,10.80
2023-04-23T00:21:05.569Z,10.80
2023-04-23T00:23:32.587Z,10.80
2023-04-23T00:25:59.658Z,10.80
2023-04-23T00:28:27.091Z,10.80
2023-04-23T00:30:54.361Z,10.80
2023-04-23T00:33:22.330Z,10.80
2023-04-23T00:35:49.252Z,10.80
2023-04-23T00:38:16.403Z,10.80
2023-04-23T00:40:44.197Z,10.80
2023-04-23T00:43:12.085Z,10.80
2023-04-23T00:45:39.254Z,10.80
2023-04-23T00:48:07.494Z,10.80
2023-04-23T00:50:34.807Z,10.80
2023-04-23T00:53:01.737Z,10.80
2023-04-23T00:55:28.926Z,10.70
2023-04-23T00:57:56.254Z,10.70
2023-04-23T01:00:23.674Z,10.70
2023-04-23T01:02:53.369Z,10.70
2023-04-23T01:05:21.445Z,10.70
2023-04-23T01:07:48.671Z,10.70
2023-04-23T01:10:18.761Z,10.70
2023-04-23T01:12:46.655Z,10.70
2023-04-23T01:15:14.435Z,10.80
2023-04-23T01:17:43.532Z,10.70
2023-04-23T01:20:11.116Z,10.70
2023-04-23T01:22:38.726Z,10.70
2023-04-23T01:25:08.344Z,10.70
2023-04-23T01:27:36.356Z,10.60
2023-04-23T01:30:06.028Z,10.60
2023-04-23T01:32:33.424Z,10.60
2023-04-23T01:35:00.761Z,10.60
2023-04-23T01:37:28.493Z,10.60
2023-04-23T01:39:56.358Z,10.60
2023-04-23T01:42:23.837Z,10.60
2023-04-23T01:44:50.912Z,10.60
2023-04-23T01:47:19.829Z,10.60
2023-04-23T01:49:47.081Z,10.60
2023-04-23T01:52:14.081Z,10.60
2023-04-23T01:54:41.364Z,10.60
2023-04-23T01:57:10.032Z,10.60
2023-04-23T01:59:37.989Z,10.60
2023-04-23T02:02:05.305Z,10.60
2023-04-23T02:04:33.224Z,10.60
2023-04-23T02:07:01.409Z,10.60
2023-04-23T02:09:28.479Z,10.60
2023-04-23T02:11:57.513Z,10.50
2023-04-23T02:14:24.542Z,10.50
2023-04-23T02:16:51.644Z,10.60
2023-04-23T02:19:19.003Z,10.60
2023-04-23T02:21:46.487Z,10.60
2023-04-23T02:24:13.913Z,10.60
2023-04-23T02:26:41.086Z,10.50
2023-04-23T02:29:08.050Z,10.50
2023-04-23T02:31:35.217Z,10.50
2023-04-23T02:34:02.742Z,10.50
2023-04-23T02:36:32.654Z,10.50
2023-04-23T02:38:59.635Z,10.60
2023-04-23T02:41:26.787Z,10.60
2023-04-23T02:43:53.893Z,10.60
2023-04-23T02:46:20.905Z,10.60
2023-04-23T02:48:48.234Z,10.50
2023-04-23T02:51:15.735Z,10.50
2023-04-23T02:53:42.886Z,10.50
2023-04-23T02:56:10.103Z,10.50
2023-04-23T02:58:37.228Z,10.40
2023-04-23T03:01:05.406Z,10.50
2023-04-23T03:03:34.030Z,10.50
2023-04-23T03:06:03.186Z,10.50
2023-04-23T03:08:30.826Z,10.50
2023-04-23T03:10:58.628Z,10.40
2023-04-23T03:13:27.129Z,10.40
2023-04-23T03:15:55.628Z,10.40
2023-04-23T03:18:23.312Z,10.40
2023-04-23T03:20:50.400Z,10.40
2023-04-23T03:23:17.581Z,10.50
2023-04-23T03:25:44.986Z,10.50
2023-04-23T03:28:12.303Z,10.60
2023-04-23T03:30:39.692Z,10.60
2023-04-23T03:33:07.688Z,10.50
2023-04-23T03:35:34.943Z,10.50
2023-04-23T03:38:01.891Z,10.50
2023-04-23T03:40:31.621Z,10.50
2023-04-23T03:42:58.947Z,10.60
2023-04-23T03:45:26.634Z,10.50
2023-04-23T03:47:54.021Z,10.50
2023-04-23T03:50:21.609Z,10.50
2023-04-23T03:52:49.001Z,10.50
2023-04-23T03:55:16.036Z,10.40
2023-04-23T03:57:43.125Z,10.40
2023-04-23T04:00:13.799Z,10.50
2023-04-23T04:02:41.352Z,10.40
2023-04-23T04:05:09.959Z,10.50
2023-04-23T04:07:37.874Z,10.50
2023-04-23T04:10:07.819Z,10.50
2023-04-23T04:12:34.782Z,10.50
2023-04-23T04:15:03.292Z,10.50
2023-04-23T04:17:30.682Z,10.40
2023-04-23T04:19:58.122Z,10.40
2023-04-23T04:22:25.464Z,10.30
2023-04-23T04:24:53.158Z,10.40
2023-04-23T04:27:20.283Z,10.40
2023-04-23T04:29:48.905Z,10.40
2023-04-23T04:32:16.672Z,10.50
2023-04-23T04:34:44.205Z,10.50
2023-04-23T04:37:11.686Z,10.60
2023-04-23T04:39:38.641Z,10.50
2023-04-23T04:42:07.456Z,10.50
2023-04-23T04:44:37.757Z,10.50
2023-04-23T04:47:07.794Z,10.50
2023-04-23T04:49:34.952Z,10.50
2023-04-23T04:52:02.349Z,10.50
2023-04-23T04:54:29.453Z,10.50
2023-04-23T04:56:56.932Z,10.50
2023-04-23T04:59:23.979Z,10.50
2023-04-23T05:01:51.272Z,10.50
2023-04-23T05:04:18.501Z,10.50
2023-04-23T05:06:45.577Z,10.50
2023-04-23T05:09:12.880Z,10.40
2023-04-23T05:11:41.140Z,10.40
2023-04-23T05:14:08.500Z,10.50
2023-04-23T05:16:35.832Z,10.40
2023-04-23T05:19:06.519Z,10.40
2023-04-23T05:21:33.872Z,10.40
2023-04-23T05:24:01.864Z,10.50
2023-04-23T05:26:29.717Z,10.50
2023-04-23T05:28:56.966Z,10.60
2023-04-23T05:31:23.982Z,10.60
2023-04-23T05:33:51.267Z,10.60
2023-04-23T05:36:18.713Z,10.70
2023-04-23T05:38:45.855Z,10.80
2023-04-23T05:41:12.876Z,10.70
2023-04-23T05:43:39.847Z,10.90
2023-04-23T05:46:07.982Z,10.80
2023-04-23T05:48:35.238Z,10.80
2023-04-23T05:51:02.578Z,10.80
2023-04-23T05:53:29.750Z,10.80
2023-04-23T05:55:56.975Z,10.90
2023-04-23T05:58:24.259Z,10.90
2023-04-23T06:00:53.078Z,10.90
2023-04-23T06:03:20.786Z,11.00
2023-04-23T06:05:49.725Z,11.00
2023-04-23T06:08:16.955Z,11.00
2023-04-23T06:10:44.193Z,11.10
2023-04-23T06:13:11.445Z,11.20
2023-04-23T06:15:38.635Z,11.20
2023-04-23T06:18:08.729Z,11.30
2023-04-23T06:20:36.210Z,11.30
2023-04-23T06:23:03.196Z,11.30
2023-04-23T06:25:30.351Z,11.30
2023-04-23T06:27:58.407Z,11.30
2023-04-23T06:30:25.380Z,11.40
2023-04-23T06:32:52.993Z,11.50
2023-04-23T06:35:20.147Z,11.60
2023-04-23T06:37:47.145Z,11.50
2023-04-23T06:40:15.070Z,11.40
2023-04-23T06:42:42.945Z,11.40
2023-04-23T06:45:13.649Z,11.50
2023-04-23T06:47:40.953Z,11.60
2023-04-23T06:50:08.711Z,11.70
2023-04-23T06:52:36.653Z,11.60
2023-04-23T06:55:04.753Z,11.60
2023-04-23T06:57:31.651Z,11.40
2023-04-23T06:59:58.669Z,11.50
2023-04-23T07:02:26.501Z,11.70
2023-04-23T07:04:53.535Z,11.70
2023-04-23T07:07:20.916Z,11.80
2023-04-23T07:09:47.825Z,11.90
2023-04-23T07:12:14.893Z,11.80
2023-04-23T07:14:43.318Z,11.90
2023-04-23T07:17:11.544Z,11.90
2023-04-23T07:19:41.838Z,12.10
2023-04-23T07:22:08.798Z,12.10
2023-04-23T07:24:35.994Z,12.10
2023-04-23T07:27:03.597Z,11.90
2023-04-23T07:29:31.271Z,11.90
2023-04-23T07:31:58.288Z,12.00
2023-04-23T07:34:28.866Z,12.10
2023-04-23T07:36:57.952Z,12.00
2023-04-23T07:39:24.864Z,12.20
2023-04-23T07:41:52.247Z,12.30
2023-04-23T07:44:19.343Z,12.20
2023-04-23T07:46:46.475Z,11.90
2023-04-23T07:49:13.455Z,11.90
2023-04-23T07:51:41.796Z,11.80
2023-04-23T07:54:10.107Z,12.00
2023-04-23T07:56:37.494Z,12.00
2023-04-23T07:59:08.003Z,11.90
2023-04-23T08:01:34.918Z,12.00
2023-04-23T08:04:03.593Z,12.00
2023-04-23T08:06:33.941Z,12.10
2023-04-23T08:09:02.878Z,12.20
2023-04-23T08:11:31.366Z,12.10
2023-04-23T08:13:58.538Z,12.10
2023-04-23T08:16:28.881Z,12.20
2023-04-23T08:19:04.983Z,12.40
2023-04-23T08:21:33.985Z,12.50
2023-04-23T08:24:04.041Z,12.70
2023-04-23T08:26:31.637Z,12.90
2023-04-23T08:29:01.025Z,13.10
2023-04-23T08:31:28.752Z,13.30
2023-04-23T08:33:56.116Z,13.70
2023-04-23T08:36:23.545Z,13.80
2023-04-23T08:38:50.830Z,13.70
2023-04-23T08:41:23.586Z,13.80
2023-04-23T08:44:04.456Z,14.10
2023-04-23T08:46:33.388Z,14.50
2023-04-23T08:49:03.781Z,14.50
2023-04-23T08:51:33.757Z,14.30
2023-04-23T08:54:06.338Z,14.20
2023-04-23T08:56:33.938Z,13.80
2023-04-23T08:59:03.894Z,14.00
2023-04-23T09:01:31.676Z,14.20
2023-04-23T09:04:01.053Z,14.40
2023-04-23T09:06:29.023Z,14.40
2023-04-23T09:08:57.672Z,14.60
2023-04-23T09:11:27.343Z,14.40
2023-04-23T09:13:56.969Z,14.50
2023-04-23T09:16:24.427Z,14.20
2023-04-23T09:18:52.785Z,14.40
2023-04-23T09:21:20.886Z,14.70
2023-04-23T09:23:52.523Z,15.30
2023-04-23T09:26:23.612Z,15.90
2023-04-23T09:28:54.120Z,16.80
2023-04-23T09:31:26.116Z,17.80
2023-04-23T09:33:55.824Z,17.60
2023-04-23T09:36:27.459Z,18.00
2023-04-23T09:38:59.218Z,17.70
2023-04-23T09:41:28.369Z,18.10
2023-04-23T09:43:59.421Z,18.60
2023-04-23T09:46:43.609Z,19.30
2023-04-23T09:49:12.649Z,18.50
2023-04-23T09:51:42.069Z,17.90
2023-04-23T09:54:26.300Z,17.80
2023-04-23T09:56:58.158Z,17.90
2023-04-23T09:59:39.949Z,17.90
2023-04-23T10:02:13.850Z,17.60
2023-04-23T10:04:42.489Z,17.00
2023-04-23T10:07:19.810Z,16.50
2023-04-23T10:09:48.513Z,16.40
2023-04-23T10:14:51.099Z,16.40
2023-04-23T10:17:18.255Z,16.20
2023-04-23T10:19:46.081Z,16.00
2023-04-23T10:22:20.256Z,15.70
2023-04-23T10:24:55.469Z,15.70
2023-04-23T10:27:48.449Z,16.10
2023-04-23T10:30:19.281Z,16.00
2023-04-23T10:32:49.820Z,16.20
2023-04-23T10:35:19.651Z,16.30
2023-04-23T10:37:48.565Z,16.70
2023-04-23T10:40:22.090Z,17.00
2023-04-23T10:42:50.709Z,17.40
2023-04-23T10:45:24.864Z,17.40
2023-04-23T10:47:55.995Z,17.60
2023-04-23T10:50:25.485Z,18.00
2023-04-23T10:52:58.053Z,18.30
2023-04-23T10:55:29.407Z,17.90
2023-04-23T10:58:06.375Z,17.00
2023-04-23T11:00:46.750Z,16.60
2023-04-23T11:03:37.961Z,16.70
2023-04-23T11:06:07.432Z,16.80
2023-04-23T11:08:38.575Z,17.20
2023-04-23T11:11:11.748Z,17.20
2023-04-23T11:14:14.765Z,17.50
2023-04-23T11:16:59.881Z,18.10
2023-04-23T11:20:07.297Z,19.00
2023-04-23T11:23:02.776Z,18.70
2023-04-23T11:28:51.598Z,19.60
2023-04-23T11:31:18.863Z,19.80
2023-04-23T11:33:48.981Z,20.20
2023-04-23T11:36:37.696Z,20.40
2023-04-23T11:39:11.130Z,19.60
2023-04-23T11:42:10.741Z,20.20
2023-04-23T11:44:50.469Z,20.90
2023-04-23T11:47:33.490Z,20.50
2023-04-23T11:54:17.136Z,20.50
2023-04-23T11:57:43.143Z,20.40
2023-04-23T12:00:26.766Z,19.90
2023-04-23T12:03:35.406Z,19.50
2023-04-23T12:06:12.139Z,18.80
2023-04-23T12:08:51.313Z,18.00
2023-04-23T12:11:53.202Z,18.00
2023-04-23T12:14:37.672Z,18.10
2023-04-23T12:17:33.091Z,18.40
2023-04-23T12:23:45.381Z,18.60
2023-04-23T12:26:44.545Z,18.30
2023-04-23T12:29:14.400Z,18.20
2023-04-23T12:32:03.922Z,18.20
2023-04-23T12:36:08.929Z,18.40
2023-04-23T12:38:39.769Z,18.50
2023-04-23T12:41:47.522Z,18.10
2023-04-23T12:44:23.933Z,18.40
2023-04-23T12:47:29.418Z,18.60
2023-04-23T12:50:05.261Z,18.30
2023-04-23T12:52:33.449Z,18.60
2023-04-23T12:55:07.188Z,18.90
2023-04-23T12:57:34.274Z,18.90
2023-04-23T13:02:53.110Z,18.60
2023-04-23T13:09:38.940Z,19.00
2023-04-23T13:17:07.363Z,20.70
2023-04-23T13:19:35.724Z,20.70
2023-04-23T13:25:26.563Z,19.80
2023-04-23T13:29:02.524Z,19.30
2023-04-23T13:30:49.256Z,19.50
2023-04-23T13:33:25.678Z,19.90
2023-04-23T13:36:11.134Z,20.00
2023-04-23T13:38:57.188Z,19.40
2023-04-23T13:41:26.880Z,19.20
2023-04-23T13:44:49.526Z,18.60
2023-04-23T13:47:38.581Z,18.80
2023-04-23T13:53:35.333Z,18.80
2023-04-23T13:56:17.263Z,18.80
2023-04-23T13:59:55.618Z,18.20
2023-04-23T14:02:25.874Z,18.20
2023-04-23T14:05:43.882Z,18.20
2023-04-23T14:08:26.049Z,17.90
2023-04-23T14:11:05.025Z,17.90
2023-04-23T14:13:47.095Z,17.60
2023-04-23T14:16:23.680Z,17.40
2023-04-23T14:18:58.832Z,17.20
2023-04-23T14:22:00.063Z,17.00
2023-04-23T14:25:41.622Z,17.10
2023-04-23T14:28:41.406Z,17.20
2023-04-23T14:35:32.252Z,17.20
2023-04-23T14:38:08.360Z,16.90
2023-04-23T14:40:41.596Z,16.50
2023-04-23T14:43:15.440Z,16.10
2023-04-23T14:45:54.493Z,15.70
2023-04-23T14:51:20.066Z,14.70
2023-04-23T15:00:34.251Z,12.80
2023-04-23T15:03:56.090Z,12.60
2023-04-23T15:06:41.161Z,12.60
2023-04-23T15:10:16.360Z,12.70
2023-04-23T15:13:07.616Z,12.80
2023-04-23T15:18:52.475Z,12.80
2023-04-23T15:22:09.285Z,12.90
2023-04-23T15:24:56.321Z,12.80
2023-04-23T15:27:28.117Z,12.90
2023-04-23T15:29:58.697Z,13.10
2023-04-23T15:32:36.753Z,13.30
2023-04-23T15:35:07.267Z,13.40
2023-04-23T15:37:55.554Z,13.50
2023-04-23T15:40:29.637Z,13.50
2023-04-23T15:42:56.609Z,13.60
2023-04-23T15:45:24.406Z,13.60
2023-04-23T15:48:48.384Z,13.60
2023-04-23T15:52:09.977Z,13.60
2023-04-23T15:57:48.142Z,13.70
2023-04-23T16:00:34.441Z,13.70
2023-04-23T16:03:50.586Z,13.70
2023-04-23T16:07:01.664Z,13.60
2023-04-23T16:12:24.003Z,13.20
2023-04-23T16:14:57.412Z,13.00
2023-04-23T16:17:26.163Z,12.90
2023-04-23T16:20:13.082Z,13.00
2023-04-23T16:22:52.756Z,12.90
2023-04-23T16:25:32.962Z,12.80
2023-04-23T16:28:14.332Z,12.70
2023-04-23T16:30:59.827Z,12.80
2023-04-23T16:33:33.295Z,12.70
2023-04-23T16:39:07.475Z,12.80
2023-04-23T16:41:42.707Z,12.80
2023-04-23T16:44:29.497Z,12.90
2023-04-23T16:53:25.308Z,13.40
2023-04-23T16:59:52.835Z,14.30
2023-04-23T17:11:19.707Z,15.00
2023-04-23T17:19:58.941Z,14.80
2023-04-23T17:22:26.293Z,14.30
2023-04-23T17:25:06.729Z,13.90
2023-04-23T17:27:52.386Z,13.70
2023-04-23T17:30:31.622Z,13.50
2023-04-23T17:33:08.962Z,13.30
2023-04-23T17:39:07.873Z,13.40
2023-04-23T17:48:42.126Z,13.00
2023-04-23T17:51:10.740Z,12.90
2023-04-23T17:54:23.257Z,12.90
2023-04-23T17:57:12.001Z,12.80
2023-04-23T18:00:07.574Z,12.60
2023-04-23T18:02:56.749Z,12.30
2023-04-23T18:08:45.178Z,12.00
2023-04-23T18:11:16.174Z,11.80
2023-04-23T18:16:52.219Z,11.70
2023-04-23T18:19:19.558Z,11.80
2023-04-23T18:21:56.688Z,11.70
2023-04-23T18:24:23.693Z,11.70
2023-04-23T18:26:58.559Z,11.70
2023-04-23T18:29:44.740Z,11.70
2023-04-23T18:32:27.438Z,11.70
2023-04-23T18:38:33.235Z,11.70
2023-04-23T18:41:12.757Z,11.70
2023-04-23T18:44:26.716Z,11.60
2023-04-23T18:47:09.274Z,11.60
2023-04-23T18:50:47.655Z,11.60
2023-04-23T18:53:24.180Z,11.60
2023-04-23T18:58:39.618Z,11.50
2023-04-23T19:01:43.380Z,11.40
2023-04-23T19:04:33.140Z,11.40
2023-04-23T19:07:37.293Z,11.30
2023-04-23T19:10:30.004Z,11.30
2023-04-23T19:12:58.047Z,11.20
2023-04-23T19:15:28.187Z,11.10
2023-04-23T19:18:04.206Z,11.10
2023-04-23T19:20:40.065Z,11.10
2023-04-23T19:23:29.082Z,11.00
2023-04-23T19:26:13.205Z,11.00
2023-04-23T19:28:53.766Z,11.00
2023-04-23T19:31:32.781Z,10.90
2023-04-23T19:34:06.091Z,10.90
2023-04-23T19:36:40.551Z,10.90
2023-04-23T19:39:22.708Z,10.90
2023-04-23T19:42:03.777Z,10.80
2023-04-23T19:44:43.350Z,10.80
2023-04-23T19:47:17.388Z,10.80
2023-04-23T19:50:10.030Z,10.80
2023-04-23T19:52:46.542Z,10.80
2023-04-23T19:55:35.195Z,10.70
2023-04-23T19:58:20.193Z,10.70
2023-04-23T20:01:57.672Z,10.70
2023-04-23T20:04:25.285Z,10.70
2023-04-23T20:06:52.377Z,10.70
2023-04-23T20:15:27.412Z,10.60
2023-04-23T20:21:03.248Z,10.50
2023-04-23T20:23:36.268Z,10.40
2023-04-23T20:26:10.812Z,10.30
2023-04-23T20:28:38.617Z,10.30
2023-04-23T20:34:22.255Z,10.20
2023-04-23T20:38:06.889Z,10.20
2023-04-23T20:44:33.069Z,10.10
2023-04-23T20:54:18.850Z,10.00
2023-04-23T20:57:49.621Z,10.00
2023-04-23T21:01:20.433Z,10.00
2023-04-23T21:07:56.949Z,9.80
2023-04-23T21:10:27.093Z,9.80
2023-04-23T21:14:10.280Z,9.70
2023-04-23T21:16:42.979Z,9.80
2023-04-23T21:19:37.574Z,9.70
2023-04-23T21:22:55.171Z,9.70
2023-04-23T21:25:51.102Z,9.70
2023-04-23T21:28:57.463Z,9.70
2023-04-23T21:31:55.903Z,9.70
2023-04-23T21:35:16.143Z,9.60
2023-04-23T21:37:43.178Z,9.60
2023-04-23T21:40:13.042Z,9.60
2023-04-23T21:43:07.309Z,9.60
2023-04-23T21:45:37.235Z,9.60
2023-04-23T21:48:16.442Z,9.50
2023-04-23T21:54:12.071Z,9.50
2023-04-23T21:57:29.007Z,9.50
2023-04-23T22:00:17.475Z,9.40
2023-04-23T22:03:46.944Z,9.40
2023-04-23T22:06:26.078Z,9.40
2023-04-23T22:08:54.692Z,9.40
2023-04-23T22:11:42.524Z,9.30
2023-04-23T22:14:38.710Z,9.40
2023-04-23T22:17:21.476Z,9.40
2023-04-23T22:20:32.352Z,9.40
2023-04-23T22:23:06.504Z,9.40
2023-04-23T22:25:46.084Z,9.40
2023-04-23T22:28:43.866Z,9.40
2023-04-23T22:31:18.495Z,9.40
2023-04-23T22:33:54.974Z,9.40
2023-04-23T22:36:34.926Z,9.40
2023-04-23T22:39:02.348Z,9.40
2023-04-23T22:41:29.532Z,9.50
2023-04-23T22:44:15.105Z,9.50
2023-04-23T22:46:43.243Z,9.50
2023-04-23T22:49:20.733Z,9.60
2023-04-23T22:52:16.363Z,9.50
2023-04-23T22:57:36.907Z,9.40
2023-04-23T23:00:13.587Z,9.40
2023-04-23T23:03:00.064Z,9.40
2023-04-23T23:05:58.524Z,9.40
2023-04-23T23:09:10.835Z,9.50
2023-04-23T23:12:23.275Z,9.50
2023-04-23T23:15:52.567Z,9.40
2023-04-23T23:18:25.355Z,9.40
2023-04-23T23:21:01.264Z,9.40
2023-04-23T23:23:34.468Z,9.50
2023-04-23T23:33:15.406Z,9.70
2023-04-23T23:35:48.297Z,9.70
2023-04-23T23:38:18.426Z,9.80
2023-04-23T23:41:14.964Z,9.80
2023-04-23T23:43:41.903Z,9.80
2023-04-23T23:46:30.879Z,9.90
2023-04-23T23:49:35.763Z,9.90
2023-04-23T23:52:05.758Z,9.90
2023-04-23T23:54:42.050Z,10.00
2023-04-23T23:57:15.517Z,10.00
2023-04-23T23:59:50.040Z,10.00
